sensor_id;sensor_type;location;lat;lon;timestamp;temperature;humidity
59282;DHT22;45054;52.062;10.010;2023-05-07T00:00:04;11.20;99.90
59282;DHT22;45054;52.062;10.010;2023-05-07T00:02:31;11.20;99.90
59282;DHT22;45054;52.062;10.010;2023-05-07T00:04:56;11.20;99.90
59282;DHT22;45054;52.062;10.010;2023-05-07T00:07:22;11.10;99.90
59282;DHT22;45054;52.062;10.010;2023-05-07T00:09:47;11.10;99.90
59282;DHT22;45054;52.062;10.010;2023-05-07T00:12:13;11.20;99.90
59282;DHT22;45054;52.062;10.010;2023-05-07T00:14:38;11.20;99.90
59282;DHT22;45054;52.062;10.010;2023-05-07T00:17:04;11.20;99.90
59282;DHT22;45054;52.062;10.010;2023-05-07T00:19:30;11.20;99.90
59282;DHT22;45054;52.062;10.010;2023-05-07T00:21:56;11.10;99.90
59282;DHT22;45054;52.062;10.010;2023-05-07T00:24:21;11.10;99.90
59282;DHT22;45054;52.062;10.010;2023-05-07T00:26:47;11.20;99.90
59282;DHT22;45054;52.062;10.010;2023-05-07T00:29:12;11.10;99.90
59282;DHT22;45054;52.062;10.010;2023-05-07T00:31:38;11.20;99.90
59282;DHT22;45054;52.062;10.010;2023-05-07T00:34:03;11.20;99.90
59282;DHT22;45054;52.062;10.010;2023-05-07T00:36:30;11.10;99.90
59282;DHT22;45054;52.062;10.010;2023-05-07T00:38:56;11.00;99.90
59282;DHT22;45054;52.062;10.010;2023-05-07T00:41:21;11.00;99.90
59282;DHT22;45054;52.062;10.010;2023-05-07T00:43:47;10.90;99.90
59282;DHT22;45054;52.062;10.010;2023-05-07T00:46:13;10.90;99.90
59282;DHT22;45054;52.062;10.010;2023-05-07T00:48:38;11.00;99.90
59282;DHT22;45054;52.062;10.010;2023-05-07T00:51:04;11.00;99.90
59282;DHT22;45054;52.062;10.010;2023-05-07T00:53:31;11.00;99.90
59282;DHT22;45054;52.062;10.010;2023-05-07T00:55:56;10.90;99.90
59282;DHT22;45054;52.062;10.010;2023-05-07T00:58:22;10.90;99.90
59282;DHT22;45054;52.062;10.010;2023-05-07T01:00:48;10.90;99.90
59282;DHT22;45054;52.062;10.010;2023-05-07T01:03:14;10.90;99.90
59282;DHT22;45054;52.062;10.010;2023-05-07T01:05:39;10.90;99.90
59282;DHT22;45054;52.062;10.010;2023-05-07T01:08:06;11.00;99.90
59282;DHT22;45054;52.062;10.010;2023-05-07T01:10:32;10.90;99.90
59282;DHT22;45054;52.062;10.010;2023-05-07T01:12:58;10.80;99.90
59282;DHT22;45054;52.062;10.010;2023-05-07T01:15:24;10.80;99.90
59282;DHT22;45054;52.062;10.010;2023-05-07T01:17:49;10.80;99.90
59282;DHT22;45054;52.062;10.010;2023-05-07T01:20:15;10.70;99.90
59282;DHT22;45054;52.062;10.010;2023-05-07T01:22:41;10.70;99.90
59282;DHT22;45054;52.062;10.010;2023-05-07T01:25:08;10.80;99.90
59282;DHT22;45054;52.062;10.010;2023-05-07T01:27:33;10.80;99.90
59282;DHT22;45054;52.062;10.010;2023-05-07T01:29:59;10.80;99.90
59282;DHT22;45054;52.062;10.010;2023-05-07T01:32:25;10.80;99.90
59282;DHT22;45054;52.062;10.010;2023-05-07T01:34:52;10.80;99.90
59282;DHT22;45054;52.062;10.010;2023-05-07T01:37:18;10.80;99.90
59282;DHT22;45054;52.062;10.010;2023-05-07T01:39:45;10.70;99.90
59282;DHT22;45054;52.062;10.010;2023-05-07T01:42:10;10.70;99.90
59282;DHT22;45054;52.062;10.010;2023-05-07T01:44:37;10.70;99.90
59282;DHT22;45054;52.062;10.010;2023-05-07T01:47:02;10.60;99.90
59282;DHT22;45054;52.062;10.010;2023-05-07T01:49:28;10.60;99.90
59282;DHT22;45054;52.062;10.010;2023-05-07T01:51:54;10.60;99.90
59282;DHT22;45054;52.062;10.010;2023-05-07T01:54:19;10.60;99.90
59282;DHT22;45054;52.062;10.010;2023-05-07T01:56:46;10.60;99.90
59282;DHT22;45054;52.062;10.010;2023-05-07T01:59:11;10.60;99.90
59282;DHT22;45054;52.062;10.010;2023-05-07T02:01:37;10.70;99.90
59282;DHT22;45054;52.062;10.010;2023-05-07T02:04:02;10.70;99.90
59282;DHT22;45054;52.062;10.010;2023-05-07T02:06:28;10.70;99.90
59282;DHT22;45054;52.062;10.010;2023-05-07T02:08:53;10.70;99.90
59282;DHT22;45054;52.062;10.010;2023-05-07T02:11:18;10.60;99.90
59282;DHT22;45054;52.062;10.010;2023-05-07T02:13:45;10.70;99.90
59282;DHT22;45054;52.062;10.010;2023-05-07T02:16:11;10.70;99.90
59282;DHT22;45054;52.062;10.010;2023-05-07T02:18:36;10.60;99.90
59282;DHT22;45054;52.062;10.010;2023-05-07T02:21:02;10.60;99.90
59282;DHT22;45054;52.062;10.010;2023-05-07T02:23:27;10.60;99.90
59282;DHT22;45054;52.062;10.010;2023-05-07T02:25:52;10.70;99.90
59282;DHT22;45054;52.062;10.010;2023-05-07T02:28:18;10.70;99.90
59282;DHT22;45054;52.062;10.010;2023-05-07T02:30:45;10.70;99.90
59282;DHT22;45054;52.062;10.010;2023-05-07T02:33:10;10.70;99.90
59282;DHT22;45054;52.062;10.010;2023-05-07T02:35:35;10.60;99.90
59282;DHT22;45054;52.062;10.010;2023-05-07T02:38:01;10.60;99.90
59282;DHT22;45054;52.062;10.010;2023-05-07T02:40:26;10.60;99.90
59282;DHT22;45054;52.062;10.010;2023-05-07T02:42:52;10.60;99.90
59282;DHT22;45054;52.062;10.010;2023-05-07T02:45:17;10.60;99.90
59282;DHT22;45054;52.062;10.010;2023-05-07T02:47:44;10.60;99.90
59282;DHT22;45054;52.062;10.010;2023-05-07T02:50:10;10.60;99.90
59282;DHT22;45054;52.062;10.010;2023-05-07T02:52:35;10.50;99.90
59282;DHT22;45054;52.062;10.010;2023-05-07T02:55:01;10.60;99.90
59282;DHT22;45054;52.062;10.010;2023-05-07T02:57:26;10.60;99.90
59282;DHT22;45054;52.062;10.010;2023-05-07T02:59:52;10.50;99.90
59282;DHT22;45054;52.062;10.010;2023-05-07T03:02:17;10.50;99.90
59282;DHT22;45054;52.062;10.010;2023-05-07T03:04:44;10.50;99.90
59282;DHT22;45054;52.062;10.010;2023-05-07T03:07:09;10.50;99.90
59282;DHT22;45054;52.062;10.010;2023-05-07T03:09:35;10.50;99.90
59282;DHT22;45054;52.062;10.010;2023-05-07T03:12:00;10.40;99.90
59282;DHT22;45054;52.062;10.010;2023-05-07T03:14:25;10.40;99.90
59282;DHT22;45054;52.062;10.010;2023-05-07T03:16:51;10.40;99.90
59282;DHT22;45054;52.062;10.010;2023-05-07T03:19:16;10.40;99.90
59282;DHT22;45054;52.062;10.010;2023-05-07T03:21:43;10.40;99.90
59282;DHT22;45054;52.062;10.010;2023-05-07T03:24:09;10.40;99.90
59282;DHT22;45054;52.062;10.010;2023-05-07T03:26:34;10.40;99.90
59282;DHT22;45054;52.062;10.010;2023-05-07T03:28:59;10.30;99.90
59282;DHT22;45054;52.062;10.010;2023-05-07T03:31:25;10.30;99.90
59282;DHT22;45054;52.062;10.010;2023-05-07T03:33:51;10.30;99.90
59282;DHT22;45054;52.062;10.010;2023-05-07T03:36:16;10.30;99.90
59282;DHT22;45054;52.062;10.010;2023-05-07T03:38:43;10.30;99.90
59282;DHT22;45054;52.062;10.010;2023-05-07T03:41:08;10.30;99.90
59282;DHT22;45054;52.062;10.010;2023-05-07T03:43:34;10.20;99.90
59282;DHT22;45054;52.062;10.010;2023-05-07T03:45:59;10.30;99.90
59282;DHT22;45054;52.062;10.010;2023-05-07T03:48:25;10.30;99.90
59282;DHT22;45054;52.062;10.010;2023-05-07T03:50:50;10.30;99.90
59282;DHT22;45054;52.062;10.010;2023-05-07T03:53:16;10.30;99.90
59282;DHT22;45054;52.062;10.010;2023-05-07T03:55:42;10.30;99.90
59282;DHT22;45054;52.062;10.010;2023-05-07T03:58:08;10.30;99.90
59282;DHT22;45054;52.062;10.010;2023-05-07T04:00:33;10.30;99.90
59282;DHT22;45054;52.062;10.010;2023-05-07T04:02:59;10.30;99.90
59282;DHT22;45054;52.062;10.010;2023-05-07T04:05:25;10.30;99.90
59282;DHT22;45054;52.062;10.010;2023-05-07T04:07:50;10.30;99.90
59282;DHT22;45054;52.062;10.010;2023-05-07T04:10:16;10.30;99.90
59282;DHT22;45054;52.062;10.010;2023-05-07T04:12:42;10.30;99.90
59282;DHT22;45054;52.062;10.010;2023-05-07T04:15:08;10.30;99.90
59282;DHT22;45054;52.062;10.010;2023-05-07T04:17:34;10.30;99.90
59282;DHT22;45054;52.062;10.010;2023-05-07T04:19:59;10.30;99.90
59282;DHT22;45054;52.062;10.010;2023-05-07T04:22:24;10.30;99.90
59282;DHT22;45054;52.062;10.010;2023-05-07T04:24:50;10.20;99.90
59282;DHT22;45054;52.062;10.010;2023-05-07T04:27:15;10.20;99.90
59282;DHT22;45054;52.062;10.010;2023-05-07T04:29:42;10.20;99.90
59282;DHT22;45054;52.062;10.010;2023-05-07T04:32:08;10.20;99.90
59282;DHT22;45054;52.062;10.010;2023-05-07T04:34:33;10.20;99.90
59282;DHT22;45054;52.062;10.010;2023-05-07T04:36:59;10.20;99.90
59282;DHT22;45054;52.062;10.010;2023-05-07T04:39:24;10.20;99.90
59282;DHT22;45054;52.062;10.010;2023-05-07T04:41:50;10.20;99.90
59282;DHT22;45054;52.062;10.010;2023-05-07T04:44:15;10.20;99.90
59282;DHT22;45054;52.062;10.010;2023-05-07T04:46:42;10.20;99.90
59282;DHT22;45054;52.062;10.010;2023-05-07T04:49:07;10.20;99.90
59282;DHT22;45054;52.062;10.010;2023-05-07T04:51:33;10.30;99.90
59282;DHT22;45054;52.062;10.010;2023-05-07T04:53:58;10.20;99.90
59282;DHT22;45054;52.062;10.010;2023-05-07T04:56:24;10.20;99.90
59282;DHT22;45054;52.062;10.010;2023-05-07T04:58:49;10.20;99.90
59282;DHT22;45054;52.062;10.010;2023-05-07T05:01:14;10.20;99.90
59282;DHT22;45054;52.062;10.010;2023-05-07T05:03:41;10.20;99.90
59282;DHT22;45054;52.062;10.010;2023-05-07T05:06:07;10.20;99.90
59282;DHT22;45054;52.062;10.010;2023-05-07T05:08:32;10.30;99.90
59282;DHT22;45054;52.062;10.010;2023-05-07T05:10:57;10.30;99.90
59282;DHT22;45054;52.062;10.010;2023-05-07T05:13:23;10.30;99.90
59282;DHT22;45054;52.062;10.010;2023-05-07T05:15:48;10.40;99.90
59282;DHT22;45054;52.062;10.010;2023-05-07T05:18:14;10.40;99.90
59282;DHT22;45054;52.062;10.010;2023-05-07T05:20:41;10.40;99.90
59282;DHT22;45054;52.062;10.010;2023-05-07T05:23:07;10.30;99.90
59282;DHT22;45054;52.062;10.010;2023-05-07T05:25:32;10.40;99.90
59282;DHT22;45054;52.062;10.010;2023-05-07T05:27:58;10.30;99.90
59282;DHT22;45054;52.062;10.010;2023-05-07T05:30:23;10.30;99.90
59282;DHT22;45054;52.062;10.010;2023-05-07T05:32:49;10.30;99.90
59282;DHT22;45054;52.062;10.010;2023-05-07T05:35:14;10.40;99.90
59282;DHT22;45054;52.062;10.010;2023-05-07T05:37:41;10.40;99.90
59282;DHT22;45054;52.062;10.010;2023-05-07T05:40:07;10.40;99.90
59282;DHT22;45054;52.062;10.010;2023-05-07T05:42:32;10.50;99.90
59282;DHT22;45054;52.062;10.010;2023-05-07T05:44:58;10.50;99.90
59282;DHT22;45054;52.062;10.010;2023-05-07T05:47:23;10.50;99.90
59282;DHT22;45054;52.062;10.010;2023-05-07T05:49:49;10.50;99.90
59282;DHT22;45054;52.062;10.010;2023-05-07T05:52:14;10.50;99.90
59282;DHT22;45054;52.062;10.010;2023-05-07T05:54:41;10.50;99.90
59282;DHT22;45054;52.062;10.010;2023-05-07T05:57:07;10.50;99.90
59282;DHT22;45054;52.062;10.010;2023-05-07T05:59:32;10.60;99.90
59282;DHT22;45054;52.062;10.010;2023-05-07T06:01:57;10.60;99.90
59282;DHT22;45054;52.062;10.010;2023-05-07T06:04:23;10.60;99.90
59282;DHT22;45054;52.062;10.010;2023-05-07T06:06:48;10.60;99.90
59282;DHT22;45054;52.062;10.010;2023-05-07T06:09:14;10.70;99.90
59282;DHT22;45054;52.062;10.010;2023-05-07T06:11:41;10.60;99.90
59282;DHT22;45054;52.062;10.010;2023-05-07T06:14:06;10.60;99.90
59282;DHT22;45054;52.062;10.010;2023-05-07T06:16:31;10.70;99.90
59282;DHT22;45054;52.062;10.010;2023-05-07T06:18:57;10.80;99.90
59282;DHT22;45054;52.062;10.010;2023-05-07T06:21:22;10.80;99.90
59282;DHT22;45054;52.062;10.010;2023-05-07T06:23:48;10.90;99.90
59282;DHT22;45054;52.062;10.010;2023-05-07T06:26:13;10.90;99.90
59282;DHT22;45054;52.062;10.010;2023-05-07T06:28:40;11.00;99.90
59282;DHT22;45054;52.062;10.010;2023-05-07T06:31:12;11.00;99.90
59282;DHT22;45054;52.062;10.010;2023-05-07T06:33:38;11.00;99.90
59282;DHT22;45054;52.062;10.010;2023-05-07T06:36:03;11.10;99.90
59282;DHT22;45054;52.062;10.010;2023-05-07T06:38:29;11.20;99.90
59282;DHT22;45054;52.062;10.010;2023-05-07T06:40:54;11.20;99.90
59282;DHT22;45054;52.062;10.010;2023-05-07T06:43:20;11.20;99.90
59282;DHT22;45054;52.062;10.010;2023-05-07T06:45:46;11.20;99.90
59282;DHT22;45054;52.062;10.010;2023-05-07T06:48:12;11.20;99.90
59282;DHT22;45054;52.062;10.010;2023-05-07T06:50:37;11.20;99.90
59282;DHT22;45054;52.062;10.010;2023-05-07T06:53:03;11.40;99.90
59282;DHT22;45054;52.062;10.010;2023-05-07T06:55:28;11.50;99.90
59282;DHT22;45054;52.062;10.010;2023-05-07T06:57:54;11.50;99.90
59282;DHT22;45054;52.062;10.010;2023-05-07T07:00:19;11.50;99.90
59282;DHT22;45054;52.062;10.010;2023-05-07T07:02:46;11.60;99.90
59282;DHT22;45054;52.062;10.010;2023-05-07T07:05:12;11.60;99.90
59282;DHT22;45054;52.062;10.010;2023-05-07T07:07:37;11.70;99.90
59282;DHT22;45054;52.062;10.010;2023-05-07T07:10:03;11.70;99.90
59282;DHT22;45054;52.062;10.010;2023-05-07T07:12:28;11.70;99.90
59282;DHT22;45054;52.062;10.010;2023-05-07T07:14:53;11.70;99.90
59282;DHT22;45054;52.062;10.010;2023-05-07T07:17:19;11.70;99.90
59282;DHT22;45054;52.062;10.010;2023-05-07T07:19:46;11.70;99.90
59282;DHT22;45054;52.062;10.010;2023-05-07T07:22:11;11.70;99.90
59282;DHT22;45054;52.062;10.010;2023-05-07T07:24:36;11.50;99.90
59282;DHT22;45054;52.062;10.010;2023-05-07T07:27:02;11.40;99.90
59282;DHT22;45054;52.062;10.010;2023-05-07T07:29:27;11.40;99.90
59282;DHT22;45054;52.062;10.010;2023-05-07T07:31:53;11.30;99.90
59282;DHT22;45054;52.062;10.010;2023-05-07T07:34:18;11.30;99.90
59282;DHT22;45054;52.062;10.010;2023-05-07T07:36:45;11.30;99.90
59282;DHT22;45054;52.062;10.010;2023-05-07T07:39:11;11.50;99.90
59282;DHT22;45054;52.062;10.010;2023-05-07T07:41:36;11.50;99.90
59282;DHT22;45054;52.062;10.010;2023-05-07T07:44:02;11.40;99.90
59282;DHT22;45054;52.062;10.010;2023-05-07T07:46:27;11.40;99.90
59282;DHT22;45054;52.062;10.010;2023-05-07T07:48:53;11.40;99.90
59282;DHT22;45054;52.062;10.010;2023-05-07T07:51:18;11.50;99.90
59282;DHT22;45054;52.062;10.010;2023-05-07T07:53:45;11.60;99.90
59282;DHT22;45054;52.062;10.010;2023-05-07T07:56:11;11.60;99.90
59282;DHT22;45054;52.062;10.010;2023-05-07T07:58:36;11.60;99.90
59282;DHT22;45054;52.062;10.010;2023-05-07T08:01:02;11.70;99.90
59282;DHT22;45054;52.062;10.010;2023-05-07T08:03:27;11.70;99.90
59282;DHT22;45054;52.062;10.010;2023-05-07T08:05:53;11.70;99.90
59282;DHT22;45054;52.062;10.010;2023-05-07T08:08:18;11.80;99.90
59282;DHT22;45054;52.062;10.010;2023-05-07T08:10:45;11.70;99.90
59282;DHT22;45054;52.062;10.010;2023-05-07T08:13:10;11.70;99.90
59282;DHT22;45054;52.062;10.010;2023-05-07T08:15:36;11.80;99.90
59282;DHT22;45054;52.062;10.010;2023-05-07T08:18:01;11.80;99.90
59282;DHT22;45054;52.062;10.010;2023-05-07T08:20:27;11.90;99.90
59282;DHT22;45054;52.062;10.010;2023-05-07T08:22:53;11.90;99.90
59282;DHT22;45054;52.062;10.010;2023-05-07T08:25:18;12.00;99.90
59282;DHT22;45054;52.062;10.010;2023-05-07T08:27:45;12.00;99.90
59282;DHT22;45054;52.062;10.010;2023-05-07T08:30:11;12.00;99.90
59282;DHT22;45054;52.062;10.010;2023-05-07T08:32:37;12.10;99.90
59282;DHT22;45054;52.062;10.010;2023-05-07T08:35:02;12.20;99.90
59282;DHT22;45054;52.062;10.010;2023-05-07T08:37:28;12.20;99.90
59282;DHT22;45054;52.062;10.010;2023-05-07T08:39:53;12.20;99.90
59282;DHT22;45054;52.062;10.010;2023-05-07T08:42:19;12.30;99.90
59282;DHT22;45054;52.062;10.010;2023-05-07T08:44:47;12.30;99.90
59282;DHT22;45054;52.062;10.010;2023-05-07T08:47:13;12.30;99.90
59282;DHT22;45054;52.062;10.010;2023-05-07T08:49:39;12.20;99.90
59282;DHT22;45054;52.062;10.010;2023-05-07T08:52:04;12.30;99.90
59282;DHT22;45054;52.062;10.010;2023-05-07T08:54:30;12.30;99.90
59282;DHT22;45054;52.062;10.010;2023-05-07T08:56:56;12.30;99.90
59282;DHT22;45054;52.062;10.010;2023-05-07T08:59:22;12.40;99.90
59282;DHT22;45054;52.062;10.010;2023-05-07T09:01:49;12.50;99.90
59282;DHT22;45054;52.062;10.010;2023-05-07T09:04:14;12.60;99.90
59282;DHT22;45054;52.062;10.010;2023-05-07T09:06:39;12.70;99.90
59282;DHT22;45054;52.062;10.010;2023-05-07T09:09:05;12.80;99.90
59282;DHT22;45054;52.062;10.010;2023-05-07T09:11:30;12.80;99.90
59282;DHT22;45054;52.062;10.010;2023-05-07T09:13:56;12.90;99.90
59282;DHT22;45054;52.062;10.010;2023-05-07T09:16:22;13.00;99.90
59282;DHT22;45054;52.062;10.010;2023-05-07T09:18:51;13.00;99.90
59282;DHT22;45054;52.062;10.010;2023-05-07T09:21:17;13.10;99.90
59282;DHT22;45054;52.062;10.010;2023-05-07T09:23:43;13.00;99.90
59282;DHT22;45054;52.062;10.010;2023-05-07T09:26:08;13.00;99.90
59282;DHT22;45054;52.062;10.010;2023-05-07T09:28:34;13.00;99.90
59282;DHT22;45054;52.062;10.010;2023-05-07T09:30:59;13.00;99.90
59282;DHT22;45054;52.062;10.010;2023-05-07T09:33:26;13.10;99.90
59282;DHT22;45054;52.062;10.010;2023-05-07T09:35:53;13.20;99.90
59282;DHT22;45054;52.062;10.010;2023-05-07T09:38:19;13.20;99.90
59282;DHT22;45054;52.062;10.010;2023-05-07T09:40:46;13.20;99.90
59282;DHT22;45054;52.062;10.010;2023-05-07T09:43:11;13.20;99.90
59282;DHT22;45054;52.062;10.010;2023-05-07T09:45:37;13.20;99.90
59282;DHT22;45054;52.062;10.010;2023-05-07T09:48:04;13.20;99.90
59282;DHT22;45054;52.062;10.010;2023-05-07T09:50:32;13.10;99.90
59282;DHT22;45054;52.062;10.010;2023-05-07T09:52:59;13.10;99.90
59282;DHT22;45054;52.062;10.010;2023-05-07T09:55:24;13.10;99.90
59282;DHT22;45054;52.062;10.010;2023-05-07T09:57:51;13.20;99.90
59282;DHT22;45054;52.062;10.010;2023-05-07T10:00:17;13.20;99.90
59282;DHT22;45054;52.062;10.010;2023-05-07T10:02:43;13.20;99.90
59282;DHT22;45054;52.062;10.010;2023-05-07T10:05:09;13.20;99.90
59282;DHT22;45054;52.062;10.010;2023-05-07T10:07:35;13.30;99.90
59282;DHT22;45054;52.062;10.010;2023-05-07T10:10:02;13.40;99.90
59282;DHT22;45054;52.062;10.010;2023-05-07T10:12:28;13.30;99.90
59282;DHT22;45054;52.062;10.010;2023-05-07T10:14:54;13.30;99.90
59282;DHT22;45054;52.062;10.010;2023-05-07T10:17:19;13.30;99.90
59282;DHT22;45054;52.062;10.010;2023-05-07T10:19:45;13.30;99.90
59282;DHT22;45054;52.062;10.010;2023-05-07T10:22:11;13.40;99.90
59282;DHT22;45054;52.062;10.010;2023-05-07T10:24:38;13.50;99.90
59282;DHT22;45054;52.062;10.010;2023-05-07T10:27:07;13.50;99.90
59282;DHT22;45054;52.062;10.010;2023-05-07T10:29:36;13.60;99.90
59282;DHT22;45054;52.062;10.010;2023-05-07T10:32:07;13.70;99.90
59282;DHT22;45054;52.062;10.010;2023-05-07T10:34:38;13.80;99.90
59282;DHT22;45054;52.062;10.010;2023-05-07T10:37:05;13.80;99.90
59282;DHT22;45054;52.062;10.010;2023-05-07T10:39:31;13.90;99.90
59282;DHT22;45054;52.062;10.010;2023-05-07T10:41:57;14.00;99.90
59282;DHT22;45054;52.062;10.010;2023-05-07T10:44:30;14.20;99.90
59282;DHT22;45054;52.062;10.010;2023-05-07T10:47:04;14.30;99.90
59282;DHT22;45054;52.062;10.010;2023-05-07T10:49:30;14.50;99.90
59282;DHT22;45054;52.062;10.010;2023-05-07T10:52:11;14.50;99.90
59282;DHT22;45054;52.062;10.010;2023-05-07T10:54:37;14.50;99.90
59282;DHT22;45054;52.062;10.010;2023-05-07T10:59:44;15.00;99.90
59282;DHT22;45054;52.062;10.010;2023-05-07T11:02:09;15.20;99.90
59282;DHT22;45054;52.062;10.010;2023-05-07T11:04:35;15.40;99.90
59282;DHT22;45054;52.062;10.010;2023-05-07T11:09:53;15.60;99.90
59282;DHT22;45054;52.062;10.010;2023-05-07T11:15:01;15.50;99.90
59282;DHT22;45054;52.062;10.010;2023-05-07T11:17:26;15.30;99.90
59282;DHT22;45054;52.062;10.010;2023-05-07T11:19:52;15.30;99.90
59282;DHT22;45054;52.062;10.010;2023-05-07T11:22:35;15.30;99.90
59282;DHT22;45054;52.062;10.010;2023-05-07T11:25:01;15.30;99.90
59282;DHT22;45054;52.062;10.010;2023-05-07T11:27:27;15.20;99.90
59282;DHT22;45054;52.062;10.010;2023-05-07T11:29:52;15.30;99.90
59282;DHT22;45054;52.062;10.010;2023-05-07T11:32:23;15.30;99.90
59282;DHT22;45054;52.062;10.010;2023-05-07T11:34:51;15.40;99.90
59282;DHT22;45054;52.062;10.010;2023-05-07T11:37:16;15.40;99.90
59282;DHT22;45054;52.062;10.010;2023-05-07T11:39:42;15.10;99.90
59282;DHT22;45054;52.062;10.010;2023-05-07T11:42:11;15.10;99.90
59282;DHT22;45054;52.062;10.010;2023-05-07T11:44:50;15.10;99.90
59282;DHT22;45054;52.062;10.010;2023-05-07T11:47:18;15.10;99.90
59282;DHT22;45054;52.062;10.010;2023-05-07T11:49:45;15.20;99.90
59282;DHT22;45054;52.062;10.010;2023-05-07T11:52:12;15.30;99.90
59282;DHT22;45054;52.062;10.010;2023-05-07T11:54:38;15.20;99.90
59282;DHT22;45054;52.062;10.010;2023-05-07T11:57:03;15.30;99.90
59282;DHT22;45054;52.062;10.010;2023-05-07T11:59:29;15.20;99.90
59282;DHT22;45054;52.062;10.010;2023-05-07T12:01:56;15.20;99.90
59282;DHT22;45054;52.062;10.010;2023-05-07T12:04:21;15.20;99.90
59282;DHT22;45054;52.062;10.010;2023-05-07T12:06:48;15.20;99.90
59282;DHT22;45054;52.062;10.010;2023-05-07T12:09:13;15.10;99.90
59282;DHT22;45054;52.062;10.010;2023-05-07T12:11:39;15.00;99.90
59282;DHT22;45054;52.062;10.010;2023-05-07T12:14:04;15.00;99.90
59282;DHT22;45054;52.062;10.010;2023-05-07T12:16:30;14.90;99.90
59282;DHT22;45054;52.062;10.010;2023-05-07T12:18:55;15.10;99.90
59282;DHT22;45054;52.062;10.010;2023-05-07T12:21:21;15.20;99.90
59282;DHT22;45054;52.062;10.010;2023-05-07T12:23:48;15.30;99.90
59282;DHT22;45054;52.062;10.010;2023-05-07T12:26:14;15.40;99.90
59282;DHT22;45054;52.062;10.010;2023-05-07T12:28:39;15.50;99.90
59282;DHT22;45054;52.062;10.010;2023-05-07T12:31:05;15.60;99.90
59282;DHT22;45054;52.062;10.010;2023-05-07T12:33:31;15.60;99.90
59282;DHT22;45054;52.062;10.010;2023-05-07T12:35:56;15.60;99.90
59282;DHT22;45054;52.062;10.010;2023-05-07T12:38:22;15.80;99.90
59282;DHT22;45054;52.062;10.010;2023-05-07T12:40:49;16.00;99.90
59282;DHT22;45054;52.062;10.010;2023-05-07T12:43:15;16.10;99.90
59282;DHT22;45054;52.062;10.010;2023-05-07T12:45:41;16.20;99.90
59282;DHT22;45054;52.062;10.010;2023-05-07T12:48:06;16.30;99.90
59282;DHT22;45054;52.062;10.010;2023-05-07T12:50:34;16.40;99.90
59282;DHT22;45054;52.062;10.010;2023-05-07T12:53:00;16.50;99.90
59282;DHT22;45054;52.062;10.010;2023-05-07T12:55:28;16.60;99.90
59282;DHT22;45054;52.062;10.010;2023-05-07T12:57:55;16.80;99.90
59282;DHT22;45054;52.062;10.010;2023-05-07T13:00:32;16.80;99.90
59282;DHT22;45054;52.062;10.010;2023-05-07T13:02:58;16.90;99.90
59282;DHT22;45054;52.062;10.010;2023-05-07T13:05:23;17.00;99.90
59282;DHT22;45054;52.062;10.010;2023-05-07T13:07:52;16.90;99.90
59282;DHT22;45054;52.062;10.010;2023-05-07T13:10:17;17.20;99.90
59282;DHT22;45054;52.062;10.010;2023-05-07T13:12:43;17.50;99.90
59282;DHT22;45054;52.062;10.010;2023-05-07T13:15:10;17.50;99.90
59282;DHT22;45054;52.062;10.010;2023-05-07T13:17:35;17.50;99.90
59282;DHT22;45054;52.062;10.010;2023-05-07T13:20:01;17.20;99.90
59282;DHT22;45054;52.062;10.010;2023-05-07T13:22:26;17.30;99.90
59282;DHT22;45054;52.062;10.010;2023-05-07T13:24:51;17.30;99.90
59282;DHT22;45054;52.062;10.010;2023-05-07T13:27:17;17.30;99.90
59282;DHT22;45054;52.062;10.010;2023-05-07T13:29:42;17.20;99.90
59282;DHT22;45054;52.062;10.010;2023-05-07T13:32:09;17.20;99.90
59282;DHT22;45054;52.062;10.010;2023-05-07T13:34:35;17.50;99.90
59282;DHT22;45054;52.062;10.010;2023-05-07T13:37:00;17.30;99.90
59282;DHT22;45054;52.062;10.010;2023-05-07T13:39:25;17.20;99.90
59282;DHT22;45054;52.062;10.010;2023-05-07T13:41:51;17.10;99.90
59282;DHT22;45054;52.062;10.010;2023-05-07T13:44:16;17.20;99.90
59282;DHT22;45054;52.062;10.010;2023-05-07T13:46:42;17.10;99.90
59282;DHT22;45054;52.062;10.010;2023-05-07T13:49:09;17.20;99.90
59282;DHT22;45054;52.062;10.010;2023-05-07T13:51:34;17.40;99.90
59282;DHT22;45054;52.062;10.010;2023-05-07T13:53:59;17.50;99.90
59282;DHT22;45054;52.062;10.010;2023-05-07T13:56:25;17.60;99.90
59282;DHT22;45054;52.062;10.010;2023-05-07T13:58:50;17.80;99.90
59282;DHT22;45054;52.062;10.010;2023-05-07T14:01:16;17.80;99.90
59282;DHT22;45054;52.062;10.010;2023-05-07T14:03:41;17.70;99.90
59282;DHT22;45054;52.062;10.010;2023-05-07T14:06:08;17.60;99.90
59282;DHT22;45054;52.062;10.010;2023-05-07T14:08:33;17.50;99.90
59282;DHT22;45054;52.062;10.010;2023-05-07T14:10:59;17.40;99.90
59282;DHT22;45054;52.062;10.010;2023-05-07T14:13:24;17.40;99.90
59282;DHT22;45054;52.062;10.010;2023-05-07T14:15:50;17.50;99.90
59282;DHT22;45054;52.062;10.010;2023-05-07T14:18:15;17.70;99.90
59282;DHT22;45054;52.062;10.010;2023-05-07T14:20:41;17.70;99.90
59282;DHT22;45054;52.062;10.010;2023-05-07T14:23:07;17.50;99.90
59282;DHT22;45054;52.062;10.010;2023-05-07T14:25:33;17.20;99.90
59282;DHT22;45054;52.062;10.010;2023-05-07T14:27:58;17.20;99.90
59282;DHT22;45054;52.062;10.010;2023-05-07T14:30:24;17.40;99.90
59282;DHT22;45054;52.062;10.010;2023-05-07T14:32:49;17.80;99.90
59282;DHT22;45054;52.062;10.010;2023-05-07T14:35:15;18.20;99.90
59282;DHT22;45054;52.062;10.010;2023-05-07T14:37:40;18.20;99.90
59282;DHT22;45054;52.062;10.010;2023-05-07T14:40:08;18.40;99.90
59282;DHT22;45054;52.062;10.010;2023-05-07T14:42:33;18.80;99.90
59282;DHT22;45054;52.062;10.010;2023-05-07T14:44:59;19.50;99.90
59282;DHT22;45054;52.062;10.010;2023-05-07T14:47:24;19.90;99.90
59282;DHT22;45054;52.062;10.010;2023-05-07T14:49:50;20.10;99.90
59282;DHT22;45054;52.062;10.010;2023-05-07T14:52:15;20.80;99.90
59282;DHT22;45054;52.062;10.010;2023-05-07T14:54:41;21.70;99.90
59282;DHT22;45054;52.062;10.010;2023-05-07T14:57:08;22.60;99.90
59282;DHT22;45054;52.062;10.010;2023-05-07T14:59:34;23.30;99.90
59282;DHT22;45054;52.062;10.010;2023-05-07T15:01:59;24.00;99.90
59282;DHT22;45054;52.062;10.010;2023-05-07T15:04:25;24.40;99.90
59282;DHT22;45054;52.062;10.010;2023-05-07T15:06:50;24.20;99.90
59282;DHT22;45054;52.062;10.010;2023-05-07T15:09:16;24.70;99.90
59282;DHT22;45054;52.062;10.010;2023-05-07T15:11:41;24.80;99.90
59282;DHT22;45054;52.062;10.010;2023-05-07T15:14:08;25.30;99.90